Flight Track Log - Related Links

Times and Time Zones

All times are in EDT time to prevent confusion due to time zone crossing. See the JBU1580 flight status page for this flight to view local times or setup timezone preferences in your user account.

Time Position Orientation Groundspeed Altitude Reporting Facility
EDT Latitude Longitude Course Direction KTS MPH feet Rate Location/Type
Tue 01:09:36 PM 26.0742 -80.1736 346° North 144 166 500  Level Miami Center
Tue 01:09:53 PM 26.0800 -80.1878 295° West 148 170 900 1,895 Climbing Miami Center
Tue 01:09:55 PM 26.0739 -80.1875 178° South 150 173 1,100 1,700 Climbing Miami Center
Tue 01:10:53 PM 26.0786 -80.2478 275° West 204 235 2,600 1,967 Climbing Miami Center
Tue 01:10:56 PM 26.0767 -80.2478 180° South 220 253 3,100 2,100 Climbing Miami Center
Tue 01:11:53 PM 26.1344 -80.2725 339° North 233 268 4,700 1,077 Climbing Miami Center
Tue 01:12:00 PM 26.3919 -80.3531 342° North  Level FlightAware Approximate
Tue 01:12:53 PM 26.2092 -80.2978 343° North 252 290 5,200  Level Miami Center
Tue 01:13:00 PM 26.5165 -80.3984 342° North  Level FlightAware Approximate
Tue 01:13:53 PM 26.2878 -80.3256 342° North 281 323 8,700  Level Miami Center
Tue 01:14:00 PM 26.6425 -80.4383 346° North  Level FlightAware Approximate
Tue 01:14:53 PM 26.3603 -80.3486 344° North 299 344 10,900  Level Miami Center
Tue 01:15:53 PM 26.4639 -80.3817 344° North 336 387 13,000 2,150 Climbing Miami Center
Tue 01:16:53 PM 26.5531 -80.4100 344° North 359 413 15,200 2,200 Climbing Miami Center
Tue 01:17:53 PM 26.6650 -80.4458 344° North 371 427 17,400 1,900 Climbing Miami Center
Tue 01:18:53 PM 26.7603 -80.4767 344° North 378 435 19,000 1,850 Climbing Miami Center
Tue 01:19:53 PM 26.8658 -80.5103 344° North 383 441 21,100 1,750 Climbing Miami Center
Tue 01:20:53 PM 26.9778 -80.5464 344° North 396 456 22,500 1,350 Climbing Miami Center
Tue 01:21:53 PM 27.0894 -80.5850 343° North 407 468 23,800 1,250 Climbing Miami Center
Tue 01:22:53 PM 27.2097 -80.6214 345° North 420 483 25,000 1,150 Climbing Miami Center
Tue 01:23:53 PM 27.3297 -80.6606 344° North 433 498 26,100 1,300 Climbing Miami Center
Tue 01:24:53 PM 27.4561 -80.7044 343° North 450 518 27,600 1,450 Climbing Miami Center
Tue 01:25:53 PM 27.5803 -80.7436 344° North 455 524 29,000 1,300 Climbing Miami Center
Tue 01:26:53 PM 27.7064 -80.7856 344° North 460 529 30,200 1,250 Climbing Miami Center
Tue 01:27:53 PM 27.8306 -80.8250 344° North 460 529 31,500 1,250 Climbing Miami Center
Tue 01:28:53 PM 27.9567 -80.8669 344° North 460 529 32,700 1,400 Climbing Miami Center
Tue 01:29:53 PM 28.0786 -80.9067 344° North 455 524 34,300 1,450 Climbing Miami Center
Tue 01:30:53 PM 28.1967 -80.9439 344° North 450 518 35,600 1,050 Climbing Miami Center
Tue 01:31:53 PM 28.3122 -80.9833 343° North 445 512 36,400 700 Climbing Miami Center
Tue 01:32:53 PM 28.4300 -81.0231 343° North 439 505 37,000 300 Climbing Miami Center
Tue 01:33:53 PM 28.5500 -81.0631 344° North 434 499 37,000  Level Miami Center
Tue 01:34:50 PM 28.6844 -81.1106 343° North 446 513 37,000  Level Jacksonville Center
Tue 01:35:50 PM 28.8058 -81.1417 347° North 467 537 37,000  Level Jacksonville Center
Tue 01:36:50 PM 28.9336 -81.1725 348° North 467 537 37,000  Level Jacksonville Center
Tue 01:37:50 PM 29.0614 -81.2036 348° North 467 537 37,000  Level Jacksonville Center
Tue 01:38:50 PM 29.1869 -81.2347 348° North 472 543 37,000  Level Jacksonville Center
Tue 01:39:50 PM 29.3147 -81.2658 348° North 467 537 37,000  Level Jacksonville Center
Tue 01:40:50 PM 29.4422 -81.2925 350° North 472 543 37,000  Level Jacksonville Center
Tue 01:41:50 PM 29.5553 -81.3217 347° North 467 537 37,000  Level Jacksonville Center
Tue 01:42:50 PM 29.6892 -81.3339 355° North 472 543 37,000  Level Jacksonville Center
Tue 01:43:50 PM 29.8269 -81.3267 North 472 543 37,000  Level Jacksonville Center
Tue 01:44:50 PM 29.9625 -81.3175 North 478 550 37,000  Level Jacksonville Center
Tue 01:45:50 PM 30.0958 -81.3106 North 478 550 37,000  Level Jacksonville Center
Tue 01:46:50 PM 30.2461 -81.3008 North 478 550 37,000  Level Jacksonville Center
Tue 01:47:50 PM 30.3839 -81.2936 North 483 556 37,000  Level Jacksonville Center
Tue 01:48:50 PM 30.5236 -81.2864 North 489 563 37,000  Level Jacksonville Center
Tue 01:49:50 PM 30.6633 -81.2794 North 494 568 37,000  Level Jacksonville Center
Tue 01:50:50 PM 30.8053 -81.2722 North 494 568 37,000  Level Jacksonville Center
Tue 01:51:50 PM 30.9472 -81.2647 North 494 568 37,000  Level Jacksonville Center
Tue 01:52:50 PM 31.0842 -81.2042 21° North 500 575 37,000  Level Jacksonville Center
Tue 01:53:50 PM 31.2189 -81.1264 26° Northeast 521 600 37,000  Level Jacksonville Center
Tue 01:54:50 PM 31.3472 -81.0461 28° Northeast 519 597 37,000  Level Jacksonville Center
Tue 01:55:50 PM 31.4797 -80.9681 27° Northeast 524 603 37,000  Level Jacksonville Center
Tue 01:56:50 PM 31.5975 -80.8975 27° Northeast 524 603 37,000  Level Jacksonville Center
Tue 01:57:50 PM 31.7444 -80.8136 26° Northeast 531 611 37,000  Level Jacksonville Center
Tue 01:58:50 PM 31.8644 -80.7400 28° Northeast 525 604 37,000  Level Jacksonville Center
Tue 01:59:50 PM 32.0111 -80.6533 27° Northeast 531 611 37,000  Level Jacksonville Center
Tue 02:00:50 PM 32.1433 -80.5764 26° Northeast 525 604 37,000  Level Jacksonville Center
Tue 02:01:50 PM 32.2631 -80.5047 27° Northeast 525 604 37,000  Level Jacksonville Center
Tue 02:02:50 PM 32.3972 -80.4222 27° Northeast 525 604 37,000  Level Jacksonville Center
Tue 02:03:50 PM 32.5292 -80.3425 27° Northeast 525 604 37,000 50 Level Jacksonville Center
Tue 02:04:50 PM 32.6611 -80.2597 28° Northeast 525 604 37,100 500 Climbing Jacksonville Center
Tue 02:05:50 PM 32.7950 -80.1792 27° Northeast 525 604 38,000 700 Climbing Jacksonville Center
Tue 02:06:50 PM 32.9267 -80.0936 29° Northeast 525 604 38,500 500 Climbing Jacksonville Center
Tue 02:07:50 PM 33.0606 -80.0100 28° Northeast 532 612 39,000 250 Climbing Jacksonville Center
Tue 02:08:50 PM 33.1944 -79.9339 25° Northeast 532 612 39,000  Level Jacksonville Center
Tue 02:09:50 PM 33.3406 -79.8444 27° Northeast 532 612 39,000  Level Jacksonville Center
Tue 02:10:50 PM 33.4719 -79.7628 27° Northeast 527 606 39,000  Level Jacksonville Center
Tue 02:11:50 PM 33.5950 -79.6686 33° Northeast 527 606 39,000  Level Jacksonville Center
Tue 02:12:50 PM 33.7175 -79.5717 33° Northeast 527 606 39,000  Level Jacksonville Center
Tue 02:13:50 PM 33.8444 -79.4744 32° Northeast 532 612 39,000  Level Jacksonville Center
Tue 02:14:50 PM 33.9617 -79.4147 23° Northeast 522 601 39,000  Level Jacksonville Center
Tue 02:15:50 PM 34.0975 -79.3517 21° North 510 587 39,000  Level Jacksonville Center
Tue 02:16:50 PM 34.2333 -79.2833 23° Northeast 516 594 39,000  Level Jacksonville Center
Tue 02:18:04 PM 34.3911 -79.1908 26° Northeast 516 594 39,000  Level Washington Center
Tue 02:19:01 PM 34.5394 -79.1142 23° Northeast 516 594 39,000  Level Washington Center
Tue 02:20:02 PM 34.6564 -79.0383 28° Northeast 465 535 39,000  Level Washington Center
Tue 02:21:03 PM 34.7878 -78.9631 25° Northeast 495 570 39,000  Level Washington Center
Tue 02:22:03 PM 34.9192 -78.8875 25° Northeast 512 589 39,000  Level Washington Center
Tue 02:23:02 PM 35.0550 -78.8067 26° Northeast 518 596 39,000  Level Washington Center
Tue 02:24:02 PM 35.1844 -78.7306 26° Northeast 512 589 39,000  Level Washington Center
Tue 02:25:03 PM 35.3114 -78.6567 25° Northeast 505 581 39,000 -350 Level Washington Center
Tue 02:26:02 PM 35.4597 -78.5653 27° Northeast 519 597 38,300 -807 Descending Washington Center
Tue 02:27:02 PM 35.5911 -78.4886 25° Northeast 519 597 37,400 -1,289 Descending Washington Center
Tue 02:28:03 PM 35.7244 -78.4114 25° Northeast 514 592 35,700 -2,132 Descending Washington Center
Tue 02:29:03 PM 35.8514 -78.3367 26° Northeast 514 592 33,100 -2,644 Descending Washington Center
Tue 02:30:01 PM 35.9783 -78.2589 26° Northeast 509 586 30,500 -2,644 Descending Washington Center
Tue 02:31:01 PM 36.1094 -78.1808 26° Northeast 509 586 27,900 -1,736 Descending Washington Center
Tue 02:32:02 PM 36.2278 -78.1078 26° Northeast 503 579 27,000 -446 Descending Washington Center
Tue 02:33:02 PM 36.3397 -78.0417 25° Northeast 468 539 27,000  Level Washington Center
Tue 02:34:03 PM 36.4539 -77.9703 27° Northeast 451 519 27,000 -50 Level Washington Center
Tue 02:35:01 PM 36.5719 -77.8989 26° Northeast 457 526 26,900 -454 Descending Washington Center
Tue 02:36:02 PM 36.6961 -77.8431 20° North 457 526 26,100 -793 Descending Washington Center
Tue 02:37:02 PM 36.8056 -77.7994 18° North 463 533 25,300 -800 Descending Washington Center
Tue 02:38:02 PM 36.9231 -77.7508 18° North 450 518 24,500 -645 Descending Washington Center
Tue 02:39:03 PM 37.0347 -77.6994 20° North 436 502 24,000 -605 Descending Washington Center
Tue 02:40:01 PM 37.1461 -77.6528 18° North 423 487 23,300 -850 Descending Washington Center
Tue 02:41:03 PM 37.2533 -77.6061 19° North 418 481 22,300 -650 Descending Washington Center
Tue 02:42:01 PM 37.3561 -77.5619 19° North 406 467 22,000 -605 Descending Washington Center
Tue 02:43:02 PM 37.4717 -77.5125 19° North 399 459 21,100 -1,190 Descending Washington Center
Tue 02:44:02 PM 37.5747 -77.4681 19° North 394 453 19,600 -1,388 Descending Washington Center
Tue 02:45:03 PM 37.6753 -77.4258 18° North 389 448 18,300 -1,289 Descending Washington Center
Tue 02:46:03 PM 37.7742 -77.3808 20° North 389 448 17,000 -1,311 Descending Washington Center
Tue 02:47:02 PM 37.8686 -77.3411 18° North 378 435 15,700 -1,311 Descending Washington Center
Tue 02:48:02 PM 37.9650 -77.2986 19° North 367 422 14,400 -1,190 Descending Washington Center
Tue 02:49:03 PM 38.0489 -77.2661 17° North 357 411 13,300 -1,140 Descending Washington Center
Tue 02:50:03 PM 38.1369 -77.2286 19° North 344 396 12,100 -1,350 Descending Washington Center
Tue 02:51:03 PM 38.2189 -77.1906 20° North 322 371 10,600 -1,068 Descending Washington Center
Tue 02:52:01 PM 38.3008 -77.1528 20° North 302 348 10,000 -814 Descending Washington Center
Tue 02:53:01 PM 38.3758 -77.1411 North 291 335 9,000 -1,190 Descending Washington Center
Tue 02:54:02 PM 38.4533 -77.1242 10° North 286 329 7,600 -1,339 Descending Washington Center
Tue 02:55:02 PM 38.5286 -77.1097 North 276 318 6,300 -1,388 Descending Washington Center
Tue 02:56:03 PM 38.5975 -77.0900 13° North 265 305 4,800 -1,806 Descending Washington Center
Tue 02:56:45 PM 38.6500 -77.0667 19° North 250 288 3,200 -1,294 Descending Potomac TRACON
Tue 02:57:45 PM 38.7000 -77.0333 27° Northeast 200 230 2,600 -750 Descending Potomac TRACON
Tue 02:58:45 PM 38.7500 -77.0333 360° North 153 176 1,700 -850 Descending Potomac TRACON
Tue 02:59:45 PM 38.8000 -77.0333 360° North 129 148 900 -694 Descending Potomac TRACON
Tue 03:00:46 PM 38.8333 -77.0333 360° North 128 147 300 -590 Descending Potomac TRACON

Login

Don't have an account? Register now (free) for customized features, flight alerts, and more!